sensor_id;sensor_type;location;lat;lon;timestamp;temperature;humidity
22666;DHT22;11499;49.486;11.104;2023-05-07T00:01:20;13.50;99.90
22666;DHT22;11499;49.486;11.104;2023-05-07T00:03:46;13.50;99.90
22666;DHT22;11499;49.486;11.104;2023-05-07T00:06:12;13.50;99.90
22666;DHT22;11499;49.486;11.104;2023-05-07T00:08:38;13.60;99.90
22666;DHT22;11499;49.486;11.104;2023-05-07T00:11:03;13.60;99.90
22666;DHT22;11499;49.486;11.104;2023-05-07T00:13:29;13.60;99.90
22666;DHT22;11499;49.486;11.104;2023-05-07T00:16:03;13.70;99.90
22666;DHT22;11499;49.486;11.104;2023-05-07T00:21:17;13.80;99.90
22666;DHT22;11499;49.486;11.104;2023-05-07T00:23:43;13.70;99.90
22666;DHT22;11499;49.486;11.104;2023-05-07T00:26:08;13.80;99.90
22666;DHT22;11499;49.486;11.104;2023-05-07T00:28:34;13.70;99.90
22666;DHT22;11499;49.486;11.104;2023-05-07T00:30:59;13.80;99.90
22666;DHT22;11499;49.486;11.104;2023-05-07T00:33:25;13.80;99.90
22666;DHT22;11499;49.486;11.104;2023-05-07T00:35:52;13.80;99.90
22666;DHT22;11499;49.486;11.104;2023-05-07T00:38:19;13.90;99.90
22666;DHT22;11499;49.486;11.104;2023-05-07T00:40:45;13.90;99.90
22666;DHT22;11499;49.486;11.104;2023-05-07T00:43:10;13.90;99.90
22666;DHT22;11499;49.486;11.104;2023-05-07T00:47:34;13.90;99.90
22666;DHT22;11499;49.486;11.104;2023-05-07T00:50:00;13.90;99.90
22666;DHT22;11499;49.486;11.104;2023-05-07T00:52:26;13.90;99.90
22666;DHT22;11499;49.486;11.104;2023-05-07T00:54:52;13.90;99.90
22666;DHT22;11499;49.486;11.104;2023-05-07T00:57:17;13.90;99.90
22666;DHT22;11499;49.486;11.104;2023-05-07T00:59:44;14.00;99.90
22666;DHT22;11499;49.486;11.104;2023-05-07T01:02:10;13.90;99.90
22666;DHT22;11499;49.486;11.104;2023-05-07T01:04:35;14.00;99.90
22666;DHT22;11499;49.486;11.104;2023-05-07T01:07:02;14.00;99.90
22666;DHT22;11499;49.486;11.104;2023-05-07T01:10:43;14.00;99.90
22666;DHT22;11499;49.486;11.104;2023-05-07T01:13:10;13.90;99.90
22666;DHT22;11499;49.486;11.104;2023-05-07T01:15:36;13.90;99.90
22666;DHT22;11499;49.486;11.104;2023-05-07T01:18:02;13.90;99.90
22666;DHT22;11499;49.486;11.104;2023-05-07T01:20:28;13.90;99.90
22666;DHT22;11499;49.486;11.104;2023-05-07T01:22:53;13.80;99.90
22666;DHT22;11499;49.486;11.104;2023-05-07T01:25:20;13.80;99.90
22666;DHT22;11499;49.486;11.104;2023-05-07T01:27:45;13.90;99.90
22666;DHT22;11499;49.486;11.104;2023-05-07T01:30:11;13.80;99.90
22666;DHT22;11499;49.486;11.104;2023-05-07T01:32:42;13.80;99.90
22666;DHT22;11499;49.486;11.104;2023-05-07T01:37:57;13.70;99.90
22666;DHT22;11499;49.486;11.104;2023-05-07T01:40:24;13.70;99.90
22666;DHT22;11499;49.486;11.104;2023-05-07T01:42:50;13.80;99.90
22666;DHT22;11499;49.486;11.104;2023-05-07T01:45:16;13.70;99.90
22666;DHT22;11499;49.486;11.104;2023-05-07T01:47:42;13.70;99.90
22666;DHT22;11499;49.486;11.104;2023-05-07T01:50:09;13.60;99.90
22666;DHT22;11499;49.486;11.104;2023-05-07T01:52:36;13.60;99.90
22666;DHT22;11499;49.486;11.104;2023-05-07T01:55:01;13.60;99.90
22666;DHT22;11499;49.486;11.104;2023-05-07T01:57:27;13.60;99.90
22666;DHT22;11499;49.486;11.104;2023-05-07T01:59:52;13.60;99.90
22666;DHT22;11499;49.486;11.104;2023-05-07T02:05:00;13.70;99.90
22666;DHT22;11499;49.486;11.104;2023-05-07T02:07:27;13.60;99.90
22666;DHT22;11499;49.486;11.104;2023-05-07T02:09:52;13.60;99.90
22666;DHT22;11499;49.486;11.104;2023-05-07T02:12:19;13.60;99.90
22666;DHT22;11499;49.486;11.104;2023-05-07T02:14:44;13.60;99.90
22666;DHT22;11499;49.486;11.104;2023-05-07T02:17:10;13.60;99.90
22666;DHT22;11499;49.486;11.104;2023-05-07T02:19:35;13.60;99.90
22666;DHT22;11499;49.486;11.104;2023-05-07T02:22:01;13.50;99.90
22666;DHT22;11499;49.486;11.104;2023-05-07T02:24:26;13.50;99.90
22666;DHT22;11499;49.486;11.104;2023-05-07T02:30:33;13.50;99.90
22666;DHT22;11499;49.486;11.104;2023-05-07T02:32:58;13.40;99.90
22666;DHT22;11499;49.486;11.104;2023-05-07T02:35:24;13.40;99.90
22666;DHT22;11499;49.486;11.104;2023-05-07T02:37:50;13.40;99.90
22666;DHT22;11499;49.486;11.104;2023-05-07T02:40:16;13.30;99.90
22666;DHT22;11499;49.486;11.104;2023-05-07T02:42:41;13.30;99.90
22666;DHT22;11499;49.486;11.104;2023-05-07T02:45:07;13.30;99.90
22666;DHT22;11499;49.486;11.104;2023-05-07T02:47:33;13.20;99.90
22666;DHT22;11499;49.486;11.104;2023-05-07T02:49:58;13.20;99.90
22666;DHT22;11499;49.486;11.104;2023-05-07T02:53:54;13.20;99.90
22666;DHT22;11499;49.486;11.104;2023-05-07T02:56:20;13.20;99.90
22666;DHT22;11499;49.486;11.104;2023-05-07T02:58:46;13.10;99.90
22666;DHT22;11499;49.486;11.104;2023-05-07T03:01:11;13.00;99.90
22666;DHT22;11499;49.486;11.104;2023-05-07T03:03:39;13.10;99.90
22666;DHT22;11499;49.486;11.104;2023-05-07T03:06:05;13.00;99.90
22666;DHT22;11499;49.486;11.104;2023-05-07T03:08:32;12.90;99.90
22666;DHT22;11499;49.486;11.104;2023-05-07T03:10:58;12.90;99.90
22666;DHT22;11499;49.486;11.104;2023-05-07T03:13:23;12.90;99.90
22666;DHT22;11499;49.486;11.104;2023-05-07T03:15:49;12.80;99.90
22666;DHT22;11499;49.486;11.104;2023-05-07T03:22:01;12.80;99.90
22666;DHT22;11499;49.486;11.104;2023-05-07T03:24:27;12.70;99.90
22666;DHT22;11499;49.486;11.104;2023-05-07T03:26:52;12.70;99.90
22666;DHT22;11499;49.486;11.104;2023-05-07T03:29:18;12.60;99.90
22666;DHT22;11499;49.486;11.104;2023-05-07T03:31:43;12.60;99.90
22666;DHT22;11499;49.486;11.104;2023-05-07T03:34:09;12.60;99.90
22666;DHT22;11499;49.486;11.104;2023-05-07T03:36:34;12.50;99.90
22666;DHT22;11499;49.486;11.104;2023-05-07T03:39:00;12.50;99.90
22666;DHT22;11499;49.486;11.104;2023-05-07T03:41:25;12.50;99.90
22666;DHT22;11499;49.486;11.104;2023-05-07T03:43:51;12.50;99.90
22666;DHT22;11499;49.486;11.104;2023-05-07T03:46:16;12.50;99.90
22666;DHT22;11499;49.486;11.104;2023-05-07T03:49:58;12.50;99.90
22666;DHT22;11499;49.486;11.104;2023-05-07T03:52:24;12.50;99.90
22666;DHT22;11499;49.486;11.104;2023-05-07T03:54:52;12.40;99.90
22666;DHT22;11499;49.486;11.104;2023-05-07T03:57:17;12.50;99.90
22666;DHT22;11499;49.486;11.104;2023-05-07T03:59:43;12.70;99.90
22666;DHT22;11499;49.486;11.104;2023-05-07T04:02:08;12.90;99.90
22666;DHT22;11499;49.486;11.104;2023-05-07T04:04:34;13.10;99.90
22666;DHT22;11499;49.486;11.104;2023-05-07T04:06:59;13.30;99.90
22666;DHT22;11499;49.486;11.104;2023-05-07T04:09:26;13.40;99.90
22666;DHT22;11499;49.486;11.104;2023-05-07T04:11:51;13.50;99.90
22666;DHT22;11499;49.486;11.104;2023-05-07T04:16:43;13.40;99.90
22666;DHT22;11499;49.486;11.104;2023-05-07T04:19:09;13.20;99.90
22666;DHT22;11499;49.486;11.104;2023-05-07T04:21:34;13.20;99.90
22666;DHT22;11499;49.486;11.104;2023-05-07T04:24:02;13.10;99.90
22666;DHT22;11499;49.486;11.104;2023-05-07T04:26:28;13.10;99.90
22666;DHT22;11499;49.486;11.104;2023-05-07T04:28:54;13.00;99.90
22666;DHT22;11499;49.486;11.104;2023-05-07T04:31:20;13.10;99.90
22666;DHT22;11499;49.486;11.104;2023-05-07T04:33:46;13.10;99.90
22666;DHT22;11499;49.486;11.104;2023-05-07T04:36:11;13.30;99.90
22666;DHT22;11499;49.486;11.104;2023-05-07T04:40:12;13.40;99.90
22666;DHT22;11499;49.486;11.104;2023-05-07T04:42:38;13.70;99.90
22666;DHT22;11499;49.486;11.104;2023-05-07T04:45:04;13.70;99.90
22666;DHT22;11499;49.486;11.104;2023-05-07T04:47:30;13.70;99.90
22666;DHT22;11499;49.486;11.104;2023-05-07T04:49:57;13.80;99.90
22666;DHT22;11499;49.486;11.104;2023-05-07T04:52:22;14.00;99.90
22666;DHT22;11499;49.486;11.104;2023-05-07T04:54:48;14.30;99.90
22666;DHT22;11499;49.486;11.104;2023-05-07T04:57:13;14.90;99.90
22666;DHT22;11499;49.486;11.104;2023-05-07T04:59:39;15.10;99.90
22666;DHT22;11499;49.486;11.104;2023-05-07T05:02:04;14.70;99.90
22666;DHT22;11499;49.486;11.104;2023-05-07T05:06:50;14.40;99.90
22666;DHT22;11499;49.486;11.104;2023-05-07T05:09:15;14.10;99.90
22666;DHT22;11499;49.486;11.104;2023-05-07T05:11:41;14.10;99.90
22666;DHT22;11499;49.486;11.104;2023-05-07T05:14:07;14.10;99.90
22666;DHT22;11499;49.486;11.104;2023-05-07T05:16:32;14.30;99.90
22666;DHT22;11499;49.486;11.104;2023-05-07T05:18:59;14.30;99.90
22666;DHT22;11499;49.486;11.104;2023-05-07T05:21:24;14.40;99.90
22666;DHT22;11499;49.486;11.104;2023-05-07T05:23:50;15.00;99.90
22666;DHT22;11499;49.486;11.104;2023-05-07T05:26:15;15.40;99.90
22666;DHT22;11499;49.486;11.104;2023-05-07T05:28:41;15.50;99.90
22666;DHT22;11499;49.486;11.104;2023-05-07T05:33:45;15.70;99.90
22666;DHT22;11499;49.486;11.104;2023-05-07T05:36:11;15.60;99.90
22666;DHT22;11499;49.486;11.104;2023-05-07T05:38:38;16.10;99.90
22666;DHT22;11499;49.486;11.104;2023-05-07T05:41:04;16.60;99.90
22666;DHT22;11499;49.486;11.104;2023-05-07T05:43:29;16.50;99.90
22666;DHT22;11499;49.486;11.104;2023-05-07T05:45:56;16.30;99.90
22666;DHT22;11499;49.486;11.104;2023-05-07T05:48:21;16.30;99.90
22666;DHT22;11499;49.486;11.104;2023-05-07T05:50:47;15.90;99.90
22666;DHT22;11499;49.486;11.104;2023-05-07T05:53:12;15.60;99.90
22666;DHT22;11499;49.486;11.104;2023-05-07T05:55:38;15.60;99.90
22666;DHT22;11499;49.486;11.104;2023-05-07T06:00:12;15.20;99.90
22666;DHT22;11499;49.486;11.104;2023-05-07T06:02:38;15.10;99.90
22666;DHT22;11499;49.486;11.104;2023-05-07T06:05:04;15.00;99.90
22666;DHT22;11499;49.486;11.104;2023-05-07T06:07:30;15.00;99.90
22666;DHT22;11499;49.486;11.104;2023-05-07T06:09:55;15.10;99.90
22666;DHT22;11499;49.486;11.104;2023-05-07T06:12:21;15.10;99.90
22666;DHT22;11499;49.486;11.104;2023-05-07T06:14:46;15.40;99.90
22666;DHT22;11499;49.486;11.104;2023-05-07T06:17:12;15.90;99.90
22666;DHT22;11499;49.486;11.104;2023-05-07T06:19:38;16.50;99.90
22666;DHT22;11499;49.486;11.104;2023-05-07T06:22:03;16.90;99.90
22666;DHT22;11499;49.486;11.104;2023-05-07T06:25:49;17.00;99.50
22666;DHT22;11499;49.486;11.104;2023-05-07T06:28:15;17.00;99.30
22666;DHT22;11499;49.486;11.104;2023-05-07T06:30:41;17.00;99.30
22666;DHT22;11499;49.486;11.104;2023-05-07T06:33:06;17.10;99.00
22666;DHT22;11499;49.486;11.104;2023-05-07T06:35:32;16.90;99.20
22666;DHT22;11499;49.486;11.104;2023-05-07T06:37:57;17.10;98.90
22666;DHT22;11499;49.486;11.104;2023-05-07T06:40:23;17.20;98.60
22666;DHT22;11499;49.486;11.104;2023-05-07T06:42:48;16.80;98.90
22666;DHT22;11499;49.486;11.104;2023-05-07T06:45:14;17.40;98.70
22666;DHT22;11499;49.486;11.104;2023-05-07T06:47:40;17.70;98.30
22666;DHT22;11499;49.486;11.104;2023-05-07T06:51:49;17.60;97.80
22666;DHT22;11499;49.486;11.104;2023-05-07T06:54:15;17.70;97.70
22666;DHT22;11499;49.486;11.104;2023-05-07T06:56:40;17.90;97.60
22666;DHT22;11499;49.486;11.104;2023-05-07T06:59:06;17.60;97.60
22666;DHT22;11499;49.486;11.104;2023-05-07T07:01:31;17.90;97.60
22666;DHT22;11499;49.486;11.104;2023-05-07T07:03:57;17.80;97.70
22666;DHT22;11499;49.486;11.104;2023-05-07T07:06:23;17.80;97.30
22666;DHT22;11499;49.486;11.104;2023-05-07T07:08:48;17.90;97.50
22666;DHT22;11499;49.486;11.104;2023-05-07T07:11:15;18.00;97.10
22666;DHT22;11499;49.486;11.104;2023-05-07T07:15:19;18.00;97.20
22666;DHT22;11499;49.486;11.104;2023-05-07T07:17:46;18.10;97.00
22666;DHT22;11499;49.486;11.104;2023-05-07T07:20:11;18.10;96.80
22666;DHT22;11499;49.486;11.104;2023-05-07T07:22:37;18.10;97.00
22666;DHT22;11499;49.486;11.104;2023-05-07T07:25:03;18.70;96.60
22666;DHT22;11499;49.486;11.104;2023-05-07T07:27:28;18.20;96.50
22666;DHT22;11499;49.486;11.104;2023-05-07T07:29:54;18.30;96.40
22666;DHT22;11499;49.486;11.104;2023-05-07T07:32:19;18.30;96.30
22666;DHT22;11499;49.486;11.104;2023-05-07T07:34:45;18.80;96.40
22666;DHT22;11499;49.486;11.104;2023-05-07T07:37:11;19.20;95.60
22666;DHT22;11499;49.486;11.104;2023-05-07T07:42:34;19.20;96.00
22666;DHT22;11499;49.486;11.104;2023-05-07T07:44:59;19.60;94.60
22666;DHT22;11499;49.486;11.104;2023-05-07T07:47:25;20.20;94.20
22666;DHT22;11499;49.486;11.104;2023-05-07T07:49:50;20.60;93.40
22666;DHT22;11499;49.486;11.104;2023-05-07T07:52:16;21.00;92.60
22666;DHT22;11499;49.486;11.104;2023-05-07T07:54:41;20.50;92.70
22666;DHT22;11499;49.486;11.104;2023-05-07T07:57:07;21.00;92.30
22666;DHT22;11499;49.486;11.104;2023-05-07T07:59:32;21.00;92.20
22666;DHT22;11499;49.486;11.104;2023-05-07T08:01:58;21.20;91.50
22666;DHT22;11499;49.486;11.104;2023-05-07T08:06:15;21.20;91.90
22666;DHT22;11499;49.486;11.104;2023-05-07T08:08:41;20.60;91.30
22666;DHT22;11499;49.486;11.104;2023-05-07T08:11:06;20.70;91.60
22666;DHT22;11499;49.486;11.104;2023-05-07T08:13:32;20.70;91.50
22666;DHT22;11499;49.486;11.104;2023-05-07T08:15:58;19.80;92.30
22666;DHT22;11499;49.486;11.104;2023-05-07T08:18:24;19.70;92.80
22666;DHT22;11499;49.486;11.104;2023-05-07T08:20:50;19.20;93.30
22666;DHT22;11499;49.486;11.104;2023-05-07T08:23:16;19.30;93.60
22666;DHT22;11499;49.486;11.104;2023-05-07T08:25:41;20.00;93.00
22666;DHT22;11499;49.486;11.104;2023-05-07T08:28:08;20.10;92.90
22666;DHT22;11499;49.486;11.104;2023-05-07T08:32:39;20.30;92.20
22666;DHT22;11499;49.486;11.104;2023-05-07T08:35:05;21.80;91.20
22666;DHT22;11499;49.486;11.104;2023-05-07T08:37:30;21.30;91.30
22666;DHT22;11499;49.486;11.104;2023-05-07T08:39:56;21.30;90.70
22666;DHT22;11499;49.486;11.104;2023-05-07T08:42:23;21.20;90.90
22666;DHT22;11499;49.486;11.104;2023-05-07T08:44:51;20.60;91.20
22666;DHT22;11499;49.486;11.104;2023-05-07T08:47:23;19.80;92.30
22666;DHT22;11499;49.486;11.104;2023-05-07T08:49:54;19.70;92.50
22666;DHT22;11499;49.486;11.104;2023-05-07T08:52:20;20.10;92.30
22666;DHT22;11499;49.486;11.104;2023-05-07T08:54:46;20.40;91.80
22666;DHT22;11499;49.486;11.104;2023-05-07T09:00:03;20.90;91.70
22666;DHT22;11499;49.486;11.104;2023-05-07T09:02:29;20.60;91.80
22666;DHT22;11499;49.486;11.104;2023-05-07T09:04:55;20.70;91.60
22666;DHT22;11499;49.486;11.104;2023-05-07T09:07:21;21.20;91.10
22666;DHT22;11499;49.486;11.104;2023-05-07T09:09:47;21.50;90.80
22666;DHT22;11499;49.486;11.104;2023-05-07T09:12:13;21.20;91.00
22666;DHT22;11499;49.486;11.104;2023-05-07T09:14:38;21.00;91.30
22666;DHT22;11499;49.486;11.104;2023-05-07T09:17:04;20.60;91.10
22666;DHT22;11499;49.486;11.104;2023-05-07T09:19:30;20.80;91.40
22666;DHT22;11499;49.486;11.104;2023-05-07T09:22:02;20.90;91.30
22666;DHT22;11499;49.486;11.104;2023-05-07T09:27:07;20.70;91.30
22666;DHT22;11499;49.486;11.104;2023-05-07T09:29:34;21.40;90.60
22666;DHT22;11499;49.486;11.104;2023-05-07T09:32:08;22.10;90.20
22666;DHT22;11499;49.486;11.104;2023-05-07T09:34:34;22.10;89.70
22666;DHT22;11499;49.486;11.104;2023-05-07T09:37:04;22.20;89.10
22666;DHT22;11499;49.486;11.104;2023-05-07T09:39:40;22.10;89.20
22666;DHT22;11499;49.486;11.104;2023-05-07T09:42:06;21.80;89.10
22666;DHT22;11499;49.486;11.104;2023-05-07T09:44:32;21.10;90.50
22666;DHT22;11499;49.486;11.104;2023-05-07T09:47:00;21.80;90.40
22666;DHT22;11499;49.486;11.104;2023-05-07T09:49:29;22.20;88.90
22666;DHT22;11499;49.486;11.104;2023-05-07T09:54:38;21.90;88.70
22666;DHT22;11499;49.486;11.104;2023-05-07T09:57:05;21.40;90.30
22666;DHT22;11499;49.486;11.104;2023-05-07T09:59:32;22.20;89.10
22666;DHT22;11499;49.486;11.104;2023-05-07T10:01:59;22.20;88.30
22666;DHT22;11499;49.486;11.104;2023-05-07T10:04:28;22.20;88.80
22666;DHT22;11499;49.486;11.104;2023-05-07T10:06:54;22.90;87.60
22666;DHT22;11499;49.486;11.104;2023-05-07T10:09:21;23.60;85.80
22666;DHT22;11499;49.486;11.104;2023-05-07T10:11:49;22.30;85.10
22666;DHT22;11499;49.486;11.104;2023-05-07T10:16:07;22.30;86.00
22666;DHT22;11499;49.486;11.104;2023-05-07T10:18:33;22.80;85.00
22666;DHT22;11499;49.486;11.104;2023-05-07T10:21:15;23.50;82.90
22666;DHT22;11499;49.486;11.104;2023-05-07T10:23:42;22.80;83.30
22666;DHT22;11499;49.486;11.104;2023-05-07T10:26:10;22.10;84.40
22666;DHT22;11499;49.486;11.104;2023-05-07T10:28:39;22.20;84.60
22666;DHT22;11499;49.486;11.104;2023-05-07T10:33:57;22.60;83.50
22666;DHT22;11499;49.486;11.104;2023-05-07T10:36:23;23.10;82.90
22666;DHT22;11499;49.486;11.104;2023-05-07T10:38:49;22.40;83.50
22666;DHT22;11499;49.486;11.104;2023-05-07T10:43:52;22.70;83.90
22666;DHT22;11499;49.486;11.104;2023-05-07T10:46:19;22.70;83.20
22666;DHT22;11499;49.486;11.104;2023-05-07T10:51:26;22.50;81.40
22666;DHT22;11499;49.486;11.104;2023-05-07T11:02:02;23.10;79.30
22666;DHT22;11499;49.486;11.104;2023-05-07T11:06:16;22.80;77.80
22666;DHT22;11499;49.486;11.104;2023-05-07T11:08:58;23.50;77.90
22666;DHT22;11499;49.486;11.104;2023-05-07T11:11:46;23.40;74.50
22666;DHT22;11499;49.486;11.104;2023-05-07T11:14:14;23.60;74.80
22666;DHT22;11499;49.486;11.104;2023-05-07T11:16:41;24.30;74.80
22666;DHT22;11499;49.486;11.104;2023-05-07T11:19:08;25.20;75.00
22666;DHT22;11499;49.486;11.104;2023-05-07T11:21:35;24.50;74.10
22666;DHT22;11499;49.486;11.104;2023-05-07T11:24:02;24.30;73.90
22666;DHT22;11499;49.486;11.104;2023-05-07T11:26:30;25.20;74.80
22666;DHT22;11499;49.486;11.104;2023-05-07T11:28:56;25.20;74.40
22666;DHT22;11499;49.486;11.104;2023-05-07T11:33:39;25.30;73.00
22666;DHT22;11499;49.486;11.104;2023-05-07T11:36:05;25.40;71.90
22666;DHT22;11499;49.486;11.104;2023-05-07T11:38:37;24.30;72.60
22666;DHT22;11499;49.486;11.104;2023-05-07T11:41:03;24.70;73.60
22666;DHT22;11499;49.486;11.104;2023-05-07T11:43:31;25.90;72.10
22666;DHT22;11499;49.486;11.104;2023-05-07T11:46:06;26.50;69.80
22666;DHT22;11499;49.486;11.104;2023-05-07T11:48:32;25.40;70.90
22666;DHT22;11499;49.486;11.104;2023-05-07T11:51:02;24.00;72.70
22666;DHT22;11499;49.486;11.104;2023-05-07T11:53:36;23.00;74.10
22666;DHT22;11499;49.486;11.104;2023-05-07T11:58:38;23.30;73.80
22666;DHT22;11499;49.486;11.104;2023-05-07T12:01:07;23.80;72.70
22666;DHT22;11499;49.486;11.104;2023-05-07T12:03:33;24.40;72.10
22666;DHT22;11499;49.486;11.104;2023-05-07T12:05:59;25.20;69.80
22666;DHT22;11499;49.486;11.104;2023-05-07T12:08:25;25.10;69.80
22666;DHT22;11499;49.486;11.104;2023-05-07T12:10:50;24.40;69.90
22666;DHT22;11499;49.486;11.104;2023-05-07T12:15:43;24.60;70.50
22666;DHT22;11499;49.486;11.104;2023-05-07T12:18:09;24.70;70.60
22666;DHT22;11499;49.486;11.104;2023-05-07T12:20:35;23.50;72.00
22666;DHT22;11499;49.486;11.104;2023-05-07T12:23:01;23.00;72.60
22666;DHT22;11499;49.486;11.104;2023-05-07T12:27:23;22.80;73.20
22666;DHT22;11499;49.486;11.104;2023-05-07T12:29:50;22.70;73.70
22666;DHT22;11499;49.486;11.104;2023-05-07T12:32:17;22.80;73.50
22666;DHT22;11499;49.486;11.104;2023-05-07T12:34:43;23.30;72.90
22666;DHT22;11499;49.486;11.104;2023-05-07T12:37:09;23.10;72.90
22666;DHT22;11499;49.486;11.104;2023-05-07T12:39:35;22.60;72.70
22666;DHT22;11499;49.486;11.104;2023-05-07T12:42:01;22.70;74.20
22666;DHT22;11499;49.486;11.104;2023-05-07T12:44:35;22.80;73.90
22666;DHT22;11499;49.486;11.104;2023-05-07T12:47:03;22.70;72.00
22666;DHT22;11499;49.486;11.104;2023-05-07T12:49:29;22.50;72.00
22666;DHT22;11499;49.486;11.104;2023-05-07T12:54:32;22.30;73.00
22666;DHT22;11499;49.486;11.104;2023-05-07T12:57:02;22.40;72.40
22666;DHT22;11499;49.486;11.104;2023-05-07T12:59:39;22.80;71.40
22666;DHT22;11499;49.486;11.104;2023-05-07T13:02:06;23.00;70.80
22666;DHT22;11499;49.486;11.104;2023-05-07T13:04:32;23.80;70.80
22666;DHT22;11499;49.486;11.104;2023-05-07T13:06:59;24.40;68.80
22666;DHT22;11499;49.486;11.104;2023-05-07T13:09:24;24.00;68.90
22666;DHT22;11499;49.486;11.104;2023-05-07T13:11:50;24.30;69.10
22666;DHT22;11499;49.486;11.104;2023-05-07T13:14:15;24.30;67.30
22666;DHT22;11499;49.486;11.104;2023-05-07T13:16:41;24.50;67.30
22666;DHT22;11499;49.486;11.104;2023-05-07T13:21:43;24.90;66.50
22666;DHT22;11499;49.486;11.104;2023-05-07T13:24:08;24.60;65.60
22666;DHT22;11499;49.486;11.104;2023-05-07T13:26:34;24.90;65.80
22666;DHT22;11499;49.486;11.104;2023-05-07T13:28:59;25.60;65.00
22666;DHT22;11499;49.486;11.104;2023-05-07T13:31:25;25.80;63.90
22666;DHT22;11499;49.486;11.104;2023-05-07T13:33:51;26.10;63.50
22666;DHT22;11499;49.486;11.104;2023-05-07T13:36:17;26.00;61.90
22666;DHT22;11499;49.486;11.104;2023-05-07T13:38:43;25.70;61.70
22666;DHT22;11499;49.486;11.104;2023-05-07T13:41:08;25.10;62.80
22666;DHT22;11499;49.486;11.104;2023-05-07T13:43:34;25.50;62.00
22666;DHT22;11499;49.486;11.104;2023-05-07T13:47:58;25.60;61.60
22666;DHT22;11499;49.486;11.104;2023-05-07T13:50:23;25.70;61.60
22666;DHT22;11499;49.486;11.104;2023-05-07T13:52:49;25.00;62.20
22666;DHT22;11499;49.486;11.104;2023-05-07T13:55:21;25.00;62.80
22666;DHT22;11499;49.486;11.104;2023-05-07T13:57:55;25.20;62.40
22666;DHT22;11499;49.486;11.104;2023-05-07T14:00:21;24.70;62.10
22666;DHT22;11499;49.486;11.104;2023-05-07T14:02:47;24.20;63.20
22666;DHT22;11499;49.486;11.104;2023-05-07T14:05:12;24.20;63.90
22666;DHT22;11499;49.486;11.104;2023-05-07T14:07:38;24.50;63.00
22666;DHT22;11499;49.486;11.104;2023-05-07T14:10:04;24.50;62.30
22666;DHT22;11499;49.486;11.104;2023-05-07T14:15:12;24.70;61.70
22666;DHT22;11499;49.486;11.104;2023-05-07T14:17:38;23.70;64.80
22666;DHT22;11499;49.486;11.104;2023-05-07T14:20:04;23.70;65.80
22666;DHT22;11499;49.486;11.104;2023-05-07T14:22:31;23.60;65.70
22666;DHT22;11499;49.486;11.104;2023-05-07T14:24:56;23.40;66.50
22666;DHT22;11499;49.486;11.104;2023-05-07T14:27:22;23.00;65.90
22666;DHT22;11499;49.486;11.104;2023-05-07T14:29:47;23.00;65.70
22666;DHT22;11499;49.486;11.104;2023-05-07T14:32:19;23.10;65.20
22666;DHT22;11499;49.486;11.104;2023-05-07T14:34:45;23.20;65.90
22666;DHT22;11499;49.486;11.104;2023-05-07T14:37:11;23.10;66.20
22666;DHT22;11499;49.486;11.104;2023-05-07T14:42:50;23.40;66.40
22666;DHT22;11499;49.486;11.104;2023-05-07T14:45:16;23.30;66.30
22666;DHT22;11499;49.486;11.104;2023-05-07T14:47:41;23.20;66.70
22666;DHT22;11499;49.486;11.104;2023-05-07T14:50:07;23.20;66.40
22666;DHT22;11499;49.486;11.104;2023-05-07T14:52:32;23.10;65.90
22666;DHT22;11499;49.486;11.104;2023-05-07T14:54:58;23.60;65.60
22666;DHT22;11499;49.486;11.104;2023-05-07T14:57:23;23.90;63.90
22666;DHT22;11499;49.486;11.104;2023-05-07T14:59:49;24.20;63.40
22666;DHT22;11499;49.486;11.104;2023-05-07T15:02:14;23.90;64.00
22666;DHT22;11499;49.486;11.104;2023-05-07T15:04:40;24.20;63.80
22666;DHT22;11499;49.486;11.104;2023-05-07T15:08:18;24.50;63.30
22666;DHT22;11499;49.486;11.104;2023-05-07T15:10:43;24.20;63.20
22666;DHT22;11499;49.486;11.104;2023-05-07T15:13:10;24.40;63.10
22666;DHT22;11499;49.486;11.104;2023-05-07T15:15:36;25.00;62.80
22666;DHT22;11499;49.486;11.104;2023-05-07T15:18:03;25.10;61.20
22666;DHT22;11499;49.486;11.104;2023-05-07T15:20:28;25.20;61.00
22666;DHT22;11499;49.486;11.104;2023-05-07T15:22:54;25.20;60.40
22666;DHT22;11499;49.486;11.104;2023-05-07T15:25:20;25.40;60.40
22666;DHT22;11499;49.486;11.104;2023-05-07T15:27:46;25.10;59.70
22666;DHT22;11499;49.486;11.104;2023-05-07T15:30:12;24.70;60.10
22666;DHT22;11499;49.486;11.104;2023-05-07T15:34:32;24.50;61.20
22666;DHT22;11499;49.486;11.104;2023-05-07T15:36:58;23.90;61.10
22666;DHT22;11499;49.486;11.104;2023-05-07T15:39:23;23.60;62.10
22666;DHT22;11499;49.486;11.104;2023-05-07T15:41:49;24.10;62.20
22666;DHT22;11499;49.486;11.104;2023-05-07T15:44:14;24.40;61.60
22666;DHT22;11499;49.486;11.104;2023-05-07T15:46:40;24.20;61.70
22666;DHT22;11499;49.486;11.104;2023-05-07T15:49:05;24.00;61.30
22666;DHT22;11499;49.486;11.104;2023-05-07T15:51:35;23.40;61.10
22666;DHT22;11499;49.486;11.104;2023-05-07T15:54:01;22.90;61.70
22666;DHT22;11499;49.486;11.104;2023-05-07T15:56:27;23.10;62.20
22666;DHT22;11499;49.486;11.104;2023-05-07T15:58:52;23.40;62.10
22666;DHT22;11499;49.486;11.104;2023-05-07T16:01:18;22.90;60.80
22666;DHT22;11499;49.486;11.104;2023-05-07T16:05:18;22.80;61.80
22666;DHT22;11499;49.486;11.104;2023-05-07T16:07:43;23.00;61.30
22666;DHT22;11499;49.486;11.104;2023-05-07T16:10:09;22.80;61.80
22666;DHT22;11499;49.486;11.104;2023-05-07T16:12:35;22.70;62.20
22666;DHT22;11499;49.486;11.104;2023-05-07T16:15:01;22.60;62.70
22666;DHT22;11499;49.486;11.104;2023-05-07T16:17:27;22.40;62.60
22666;DHT22;11499;49.486;11.104;2023-05-07T16:19:52;22.30;63.20
22666;DHT22;11499;49.486;11.104;2023-05-07T16:22:18;22.30;62.50
22666;DHT22;11499;49.486;11.104;2023-05-07T16:24:44;22.30;62.70
22666;DHT22;11499;49.486;11.104;2023-05-07T16:27:09;22.20;62.80
22666;DHT22;11499;49.486;11.104;2023-05-07T16:32:10;22.20;63.10
22666;DHT22;11499;49.486;11.104;2023-05-07T16:34:35;22.20;63.70
22666;DHT22;11499;49.486;11.104;2023-05-07T16:37:02;22.10;62.90
22666;DHT22;11499;49.486;11.104;2023-05-07T16:39:28;22.20;63.00
22666;DHT22;11499;49.486;11.104;2023-05-07T16:41:53;22.00;63.30
22666;DHT22;11499;49.486;11.104;2023-05-07T16:44:19;21.90;63.00
22666;DHT22;11499;49.486;11.104;2023-05-07T16:46:44;21.90;62.20
22666;DHT22;11499;49.486;11.104;2023-05-07T16:49:10;21.80;62.30
22666;DHT22;11499;49.486;11.104;2023-05-07T16:51:35;22.00;62.00